Time;durP1;ratioP1;P1;durP2;ratioP2;P2;SDS_P1;SDS_P2;PMS_P1;PMS_P2;Temp;Humidity;BMP_temperature;BMP_pressure;BME280_temperature;BME280_humidity;BME280_pressure;Samples;Min_cycle;Max_cycle;Signal;HPM_P1;HPM_P2
2022/08/13 00:02:18;;;;;;;4.80;2.78;;;;;;;24.42;39.68;100753.28;5066591;28;20955;-61
2022/08/13 00:05:07;;;;;;;3.83;2.80;;;;;;;24.42;39.71;100753.28;5066882;28;20384;-61
2022/08/13 00:07:32;;;;;;;2.70;2.50;;;;;;;24.37;39.73;100752.44;5066118;28;20396;-63
2022/08/13 00:09:59;;;;;;;4.43;2.87;;;;;;;24.41;39.51;100756.25;5067165;28;20390;-62
2022/08/13 00:15:31;;;;;;;3.08;2.63;;;;;;;24.51;39.33;100742.75;5066662;28;20394;-60
2022/08/13 00:18:02;;;;;;;4.78;3.63;;;;;;;24.52;39.08;100738.97;5066641;28;20399;-61
2022/08/13 00:20:33;;;;;;;3.58;2.75;;;;;;;24.52;39.14;100746.28;5066529;28;20376;-60
2022/08/13 00:22:58;;;;;;;3.10;2.80;;;;;;;24.47;39.33;100736.25;5066504;28;20414;-60
2022/08/13 00:27:06;;;;;;;5.55;2.75;;;;;;;24.50;39.09;100740.31;5085731;27;20822;-61
2022/08/13 00:29:32;;;;;;;4.57;2.90;;;;;;;24.54;39.06;100744.16;5087089;28;20408;-61
2022/08/13 00:31:57;;;;;;;3.13;2.70;;;;;;;24.53;39.30;100735.22;5087363;28;20371;-63
2022/08/13 00:34:23;;;;;;;4.38;3.00;;;;;;;24.50;39.38;100722.16;5087124;28;20497;-61
2022/08/13 00:36:49;;;;;;;3.43;2.80;;;;;;;24.47;39.57;100725.41;5086916;28;20894;-61
2022/08/13 00:40:31;;;;;;;3.15;2.63;;;;;;;24.49;39.41;100736.78;5046883;27;3122746;-61
2022/08/13 00:43:41;;;;;;;3.88;2.67;;;;;;;24.46;39.61;100739.22;5106710;27;20430;-60
2022/08/13 00:46:06;;;;;;;6.50;2.60;;;;;;;24.24;39.74;100740.16;5094048;28;20402;-61
2022/08/13 00:48:46;;;;;;;2.90;2.47;;;;;;;24.13;40.15;100757.41;5086840;28;20385;-61
2022/08/13 00:52:38;;;;;;;6.22;2.95;;;;;;;24.07;40.44;100739.50;5095130;27;2069028;-61
2022/08/13 00:55:07;;;;;;;5.35;3.42;;;;;;;24.19;40.48;100742.84;5148919;27;20388;-61
2022/08/13 00:57:33;;;;;;;3.85;2.78;;;;;;;24.21;40.39;100729.84;5148597;27;20460;-62
2022/08/13 01:00:06;;;;;;;4.70;2.80;;;;;;;24.14;40.57;100724.63;5139317;27;20504;-61
2022/08/13 01:02:32;;;;;;;3.78;2.90;;;;;;;24.08;40.42;100739.22;5134159;27;20377;-61
2022/08/13 01:04:58;;;;;;;4.15;2.92;;;;;;;23.97;40.45;100735.63;5138208;27;20382;-61
2022/08/13 01:09:20;;;;;;;3.08;2.63;;;;;;;23.94;40.84;100730.72;5046342;28;20406;-61
2022/08/13 01:11:47;;;;;;;2.80;2.50;;;;;;;23.74;40.87;100730.53;5046007;28;20953;-61
2022/08/13 01:17:12;;;;;;;4.65;2.90;;;;;;;23.61;41.11;100734.47;5066277;28;20437;-62
2022/08/13 01:19:39;;;;;;;3.85;3.00;;;;;;;23.37;41.53;100737.50;5067191;28;20396;-61
2022/08/13 01:22:05;;;;;;;6.22;3.30;;;;;;;23.35;41.50;100728.00;5067128;28;20419;-61
2022/08/13 01:24:52;;;;;;;4.22;3.15;;;;;;;23.40;41.54;100733.47;5066170;28;20429;-61
2022/08/13 01:27:22;;;;;;;3.93;3.40;;;;;;;23.30;41.78;100731.47;5067283;28;20890;-61
2022/08/13 01:29:50;;;;;;;5.13;3.08;;;;;;;23.26;41.88;100731.16;5067152;28;20376;-60
2022/08/13 01:32:16;;;;;;;5.20;3.33;;;;;;;23.34;42.11;100731.78;5032043;28;20402;-60
2022/08/13 01:34:45;;;;;;;3.85;3.30;;;;;;;23.37;42.38;100728.56;5042426;28;20480;-60
2022/08/13 01:37:13;;;;;;;6.53;3.63;;;;;;;23.38;42.83;100730.19;5028550;28;20855;-60
2022/08/13 01:39:39;;;;;;;4.55;3.50;;;;;;;23.27;43.23;100732.78;5028370;28;20387;-60
2022/08/13 01:42:24;;;;;;;4.45;3.35;;;;;;;23.27;43.63;100724.66;5034498;28;20408;-60
2022/08/13 01:44:50;;;;;;;4.40;3.43;;;;;;;23.25;43.71;100721.41;5026769;28;20457;-61
2022/08/13 01:52:47;;;;;;;3.63;3.30;;;;;;;23.23;44.74;100718.16;5007220;28;20756;-61
2022/08/13 01:55:13;;;;;;;4.82;3.40;;;;;;;23.22;44.84;100713.00;5007344;28;20389;-61
2022/08/13 01:57:43;;;;;;;8.23;3.67;;;;;;;23.21;45.01;100714.88;5007623;28;20449;-61
2022/08/13 02:00:45;;;;;;;5.22;3.45;;;;;;;23.18;45.29;100712.69;5066091;28;20457;-60
2022/08/13 02:03:11;;;;;;;5.90;3.30;;;;;;;23.21;45.37;100716.75;5067226;28;20396;-61
2022/08/13 02:05:50;;;;;;;4.90;3.42;;;;;;;23.18;45.53;100711.88;5066053;28;20468;-60
2022/08/13 02:08:20;;;;;;;5.10;3.10;;;;;;;23.20;45.52;100709.72;5067104;28;20410;-60
2022/08/13 02:10:47;;;;;;;5.20;3.65;;;;;;;23.22;45.87;100713.00;5067085;28;20384;-61
2022/08/13 02:14:47;;;;;;;5.82;3.80;;;;;;;23.21;45.75;100708.63;5106185;27;20401;-61
2022/08/13 02:17:25;;;;;;;6.87;3.57;;;;;;;23.19;45.70;100714.31;5107524;28;20392;-61
2022/08/13 02:19:57;;;;;;;5.97;3.72;;;;;;;23.21;45.68;100705.94;5107540;28;20372;-60
2022/08/13 02:22:24;;;;;;;5.53;3.67;;;;;;;23.29;45.85;100713.59;5107284;28;20469;-61
2022/08/13 02:24:56;;;;;;;4.53;3.97;;;;;;;23.37;45.37;100718.56;5107370;28;20467;-60
2022/08/13 02:27:24;;;;;;;5.30;4.80;;;;;;;23.42;45.56;100715.09;5107268;28;20469;-60
2022/08/13 02:31:21;;;;;;;6.15;4.20;;;;;;;23.53;45.21;100724.13;5057378;28;20952;-60
2022/08/13 02:35:11;;;;;;;4.70;4.20;;;;;;;23.55;44.92;100716.56;5095162;27;2069937;-61
2022/08/13 02:38:11;;;;;;;6.68;4.97;;;;;;;23.57;44.45;100723.34;5066156;28;20404;-60
2022/08/13 02:43:24;;;;;;;3.78;3.47;;;;;;;23.61;44.20;100724.47;5067163;28;20387;-61
2022/08/13 02:45:52;;;;;;;5.15;4.20;;;;;;;23.59;44.07;100721.22;5066687;28;20739;-61
2022/08/13 02:48:17;;;;;;;6.10;3.63;;;;;;;23.62;43.71;100719.88;5066742;28;20430;-60
2022/08/13 02:50:45;;;;;;;4.35;3.40;;;;;;;23.59;43.39;100717.69;5067019;28;20784;-61
2022/08/13 02:54:55;;;;;;;4.35;3.55;;;;;;;23.62;42.97;100722.56;5085814;27;20471;-61
2022/08/13 02:57:22;;;;;;;7.87;3.90;;;;;;;23.59;42.74;100721.22;5087061;28;20473;-61
2022/08/13 02:59:47;;;;;;;4.80;3.28;;;;;;;23.62;42.79;100730.69;5087226;28;20949;-61
2022/08/13 03:02:13;;;;;;;5.20;3.43;;;;;;;23.63;42.70;100726.91;5087603;28;20378;-61
2022/08/13 03:04:43;;;;;;;3.78;3.38;;;;;;;23.66;42.52;100740.75;5087379;28;20378;-60
2022/08/13 03:07:09;;;;;;;5.70;3.90;;;;;;;23.69;42.67;100746.72;5086919;28;20374;-60
2022/08/13 03:13:17;;;;;;;6.53;4.10;;;;;;;23.72;42.27;100733.50;5096164;27;2042009;-61
2022/08/13 03:15:44;;;;;;;6.22;3.80;;;;;;;23.72;42.21;100732.69;5148754;27;20454;-60
2022/08/13 03:18:10;;;;;;;5.50;3.80;;;;;;;23.72;42.32;100735.41;5148812;27;20444;-61
2022/08/13 03:20:37;;;;;;;6.63;3.80;;;;;;;23.73;42.50;100737.81;5149043;27;20369;-61
2022/08/13 03:23:03;;;;;;;6.55;3.60;;;;;;;23.79;42.39;100742.22;5148423;27;20399;-61
2022/08/13 03:25:30;;;;;;;4.57;3.60;;;;;;;23.74;42.30;100734.06;5148938;27;20409;-61
2022/08/13 03:27:58;;;;;;;6.28;4.18;;;;;;;23.78;42.43;100746.00;5148866;27;20374;-60
2022/08/13 03:30:26;;;;;;;5.53;4.35;;;;;;;23.81;42.49;100739.28;5148496;27;20855;-62
2022/08/13 03:32:52;;;;;;;6.78;4.10;;;;;;;23.87;42.12;100746.38;5148333;27;20827;-61
2022/08/13 03:35:23;;;;;;;6.55;4.63;;;;;;;23.90;42.51;100742.34;5148429;27;20766;-61
2022/08/13 03:37:54;;;;;;;4.93;3.83;;;;;;;23.97;42.07;100741.03;5148443;27;20384;-61
2022/08/13 03:40:23;;;;;;;5.07;3.70;;;;;;;23.97;42.49;100742.94;5148324;27;20389;-61
2022/08/13 03:42:50;;;;;;;4.55;3.75;;;;;;;24.02;42.13;100740.25;5148336;27;20377;-61
2022/08/13 03:45:17;;;;;;;7.70;3.97;;;;;;;24.06;42.09;100749.50;5148192;27;20452;-61
2022/08/13 03:47:43;;;;;;;7.13;4.10;;;;;;;24.05;42.32;100745.16;5148268;27;20369;-60
2022/08/13 03:50:11;;;;;;;6.40;4.32;;;;;;;24.11;42.18;100746.00;5147955;27;20906;-61
2022/08/13 03:52:38;;;;;;;5.35;3.97;;;;;;;24.11;41.99;100741.44;5147982;27;20455;-61
2022/08/13 03:55:12;;;;;;;5.78;3.90;;;;;;;24.15;42.33;100737.13;5147873;27;20430;-61
2022/08/13 03:57:39;;;;;;;4.50;4.10;;;;;;;24.15;42.10;100739.81;5148003;27;20369;-61
2022/08/13 04:00:07;;;;;;;8.30;4.13;;;;;;;24.22;42.20;100750.44;5147730;27;20720;-61
2022/08/13 04:02:33;;;;;;;8.60;4.32;;;;;;;24.22;42.07;100745.84;5106576;28;20434;-62
2022/08/13 04:04:58;;;;;;;6.90;4.53;;;;;;;24.29;42.04;100750.19;5106823;28;20754;-60
2022/08/13 04:07:25;;;;;;;7.40;4.60;;;;;;;24.23;42.25;100743.94;5106678;28;20415;-60
2022/08/13 04:09:50;;;;;;;4.50;4.10;;;;;;;24.30;42.03;100743.72;5106320;28;20839;-61
2022/08/13 04:12:16;;;;;;;6.60;4.70;;;;;;;24.40;42.01;100738.38;5140556;27;20496;-63
2022/08/13 04:14:43;;;;;;;10.88;4.97;;;;;;;24.48;41.87;100737.06;5146285;27;20410;-62
2022/08/13 04:17:10;;;;;;;7.85;4.40;;;;;;;24.47;42.00;100730.00;5145470;27;20381;-62
2022/08/13 04:19:42;;;;;;;7.18;4.60;;;;;;;24.49;41.93;100746.78;5145987;27;20378;-61
2022/08/13 04:22:10;;;;;;;9.75;4.88;;;;;;;24.43;42.31;100749.50;5145895;27;20420;-61
2022/08/13 04:24:36;;;;;;;6.07;5.03;;;;;;;24.49;42.22;100750.34;5114496;27;20378;-62
2022/08/13 04:27:02;;;;;;;7.57;4.57;;;;;;;24.52;42.33;100749.78;5133822;27;20385;-61
2022/08/13 04:29:29;;;;;;;7.75;4.70;;;;;;;24.54;42.25;100750.41;5133562;27;20417;-63
2022/08/13 04:31:54;;;;;;;8.20;4.78;;;;;;;24.58;42.01;100756.94;5131370;27;20398;-63
2022/08/13 04:34:25;;;;;;;8.33;5.10;;;;;;;24.67;42.39;100769.97;5131589;27;20370;-62
2022/08/13 04:36:52;;;;;;;8.80;5.03;;;;;;;24.65;42.51;100759.41;5131429;27;20398;-63
2022/08/13 04:39:17;;;;;;;7.35;5.80;;;;;;;24.69;42.58;100757.78;5131184;27;20767;-63
2022/08/13 04:41:43;;;;;;;8.70;5.25;;;;;;;24.72;42.50;100757.28;5131398;27;20886;-62
2022/08/13 04:44:09;;;;;;;8.30;5.33;;;;;;;24.77;42.74;100756.47;5131226;27;20381;-63
2022/08/13 04:46:34;;;;;;;9.48;5.82;;;;;;;24.78;42.63;100761.63;5132589;27;20417;-61
2022/08/13 04:49:00;;;;;;;9.87;6.60;;;;;;;24.83;42.72;100758.16;5133257;27;20370;-61
2022/08/13 04:51:26;;;;;;;7.97;5.50;;;;;;;24.90;42.84;100763.31;5133147;27;20429;-61
2022/08/13 04:53:52;;;;;;;9.33;5.80;;;;;;;24.90;42.57;100758.72;5132823;27;20522;-61
2022/08/13 04:56:18;;;;;;;9.65;5.63;;;;;;;24.95;42.69;100753.28;5133378;27;20374;-61
2022/08/13 04:58:45;;;;;;;10.68;5.35;;;;;;;24.98;42.67;100765.53;5133021;27;20372;-61
2022/08/13 05:01:11;;;;;;;6.78;4.88;;;;;;;24.96;42.74;100757.66;5133049;27;20370;-62
2022/08/13 05:03:45;;;;;;;7.30;4.53;;;;;;;24.93;42.61;100760.06;5132960;27;20377;-62
2022/08/13 05:06:18;;;;;;;7.57;4.78;;;;;;;24.94;42.80;100759.81;5132902;27;20381;-61
2022/08/13 05:08:48;;;;;;;8.55;5.20;;;;;;;25.00;42.80;100755.22;5132483;27;20374;-62
2022/08/13 05:11:14;;;;;;;7.63;4.87;;;;;;;25.00;42.76;100749.78;5132838;27;20489;-62
2022/08/13 05:13:42;;;;;;;6.80;4.88;;;;;;;25.00;42.71;100752.50;5132801;27;20413;-61
2022/08/13 05:16:09;;;;;;;8.65;4.40;;;;;;;24.93;42.97;100744.59;5132664;27;20376;-62
2022/08/13 05:18:38;;;;;;;7.15;4.00;;;;;;;25.04;42.61;100750.88;5132406;27;20405;-61
2022/08/13 05:21:06;;;;;;;9.43;4.47;;;;;;;25.06;42.46;100746.00;5132193;27;20781;-62
2022/08/13 05:23:34;;;;;;;8.73;4.13;;;;;;;25.07;42.34;100753.06;5132485;27;20886;-61
2022/08/13 05:26:00;;;;;;;4.82;4.15;;;;;;;25.07;42.25;100746.84;5132464;27;20378;-62
2022/08/13 05:28:27;;;;;;;6.88;4.30;;;;;;;25.05;42.53;100752.53;5132213;27;20409;-62
2022/08/13 05:30:53;;;;;;;5.80;3.92;;;;;;;25.07;42.38;100755.78;5114142;27;20558;-61
2022/08/13 05:33:22;;;;;;;6.43;4.25;;;;;;;25.10;42.41;100751.72;5132102;27;20504;-63
2022/08/13 05:36:39;;;;;;;7.13;4.50;;;;;;;25.18;42.33;100753.94;5106697;27;20396;-61
2022/08/13 05:39:05;;;;;;;5.33;4.70;;;;;;;25.22;42.21;100751.50;5107628;28;20916;-61
2022/08/13 05:41:30;;;;;;;9.93;5.63;;;;;;;25.19;42.42;100755.53;5107361;28;20376;-61
2022/08/13 05:43:56;;;;;;;10.52;6.00;;;;;;;25.24;42.32;100758.31;5107257;28;20816;-61
2022/08/13 05:46:25;;;;;;;7.57;5.73;;;;;;;25.28;42.51;100755.88;5107179;28;20380;-60
2022/08/13 05:48:56;;;;;;;15.68;5.90;;;;;;;25.32;42.42;100755.06;5107212;28;20376;-62
2022/08/13 05:51:31;;;;;;;9.57;5.75;;;;;;;25.32;42.49;100746.13;5105968;28;20442;-60
2022/08/13 05:53:59;;;;;;;10.85;5.88;;;;;;;25.40;42.55;100752.94;5107020;28;20827;-60
2022/08/13 05:56:38;;;;;;;7.88;6.18;;;;;;;25.36;42.36;100753.44;5106067;28;20451;-60
2022/08/13 05:59:05;;;;;;;11.43;6.50;;;;;;;25.39;42.46;100749.41;5107163;28;20375;-59
2022/08/13 06:04:18;;;;;;;13.15;7.78;;;;;;;25.53;42.42;100755.09;5107118;28;20391;-60
2022/08/13 06:06:44;;;;;;;13.97;9.23;;;;;;;25.50;42.19;100751.03;5107103;28;20430;-60
2022/08/13 06:09:10;;;;;;;14.00;9.63;;;;;;;25.53;42.16;100757.81;5107055;28;20380;-60
2022/08/13 06:11:38;;;;;;;14.93;9.60;;;;;;;25.57;42.14;100756.22;5107104;28;20459;-61
2022/08/13 06:14:04;;;;;;;13.30;9.75;;;;;;;25.63;41.88;100751.63;5106620;28;20385;-60
2022/08/13 06:16:30;;;;;;;15.20;8.70;;;;;;;25.67;41.98;100753.50;5106927;28;20412;-60
2022/08/13 06:18:57;;;;;;;9.70;6.97;;;;;;;25.70;42.13;100749.44;5106905;28;20866;-60
2022/08/13 06:21:24;;;;;;;11.30;6.47;;;;;;;25.72;42.22;100744.56;5106852;28;20381;-60
2022/08/13 06:23:51;;;;;;;8.00;6.23;;;;;;;25.78;42.05;100740.75;5106718;28;20383;-61
2022/08/13 06:26:19;;;;;;;7.43;5.47;;;;;;;25.88;41.86;100751.63;5094455;28;20391;-60
2022/08/13 06:28:46;;;;;;;8.77;5.95;;;;;;;25.91;41.74;100740.22;5070593;28;20384;-60
2022/08/13 06:31:16;;;;;;;7.78;5.72;;;;;;;25.91;42.09;100744.81;5076675;28;20698;-60
2022/08/13 06:33:43;;;;;;;7.57;6.07;;;;;;;25.92;42.09;100738.31;5072812;28;20382;-61
2022/08/13 06:36:12;;;;;;;7.93;5.53;;;;;;;25.99;41.78;100744.31;5072864;28;20502;-60
2022/08/13 06:38:48;;;;;;;10.27;6.07;;;;;;;26.02;42.06;100738.34;5072620;28;20408;-60
2022/08/13 06:41:16;;;;;;;7.40;5.97;;;;;;;26.04;42.10;100724.50;5070904;28;20385;-60
2022/08/13 06:43:43;;;;;;;8.85;6.88;;;;;;;26.10;42.14;100724.19;5065396;28;20410;-60
2022/08/13 06:46:11;;;;;;;11.30;6.82;;;;;;;26.17;41.92;100731.25;5061766;28;20377;-60
2022/08/13 06:48:41;;;;;;;10.40;7.20;;;;;;;26.13;42.22;100733.72;5052176;28;20459;-60
2022/08/13 06:51:12;;;;;;;12.43;6.90;;;;;;;26.20;42.17;100731.53;5052111;28;20885;-60
2022/08/13 06:53:41;;;;;;;9.55;6.78;;;;;;;26.24;41.85;100735.31;5052360;28;20414;-60
2022/08/13 06:56:16;;;;;;;10.55;7.82;;;;;;;26.31;41.79;100741.28;5051131;28;20466;-60
2022/08/13 06:58:47;;;;;;;10.88;7.00;;;;;;;26.31;41.96;100740.47;5052283;28;20450;-60
2022/08/13 07:01:22;;;;;;;10.32;6.70;;;;;;;26.40;41.75;100744.25;5052011;28;20384;-60
2022/08/13 07:03:49;;;;;;;10.35;6.90;;;;;;;26.46;41.82;100747.78;5052226;28;20940;-60
2022/08/13 07:06:22;;;;;;;13.07;7.23;;;;;;;26.53;41.90;100742.88;5052269;28;20432;-62
2022/08/13 07:08:47;;;;;;;8.98;7.40;;;;;;;26.55;41.76;100742.59;5051798;28;20764;-61
2022/08/13 07:11:22;;;;;;;12.10;7.47;;;;;;;26.60;41.63;100735.22;5051783;28;20898;-60
2022/08/13 07:13:51;;;;;;;12.02;7.20;;;;;;;26.63;41.43;100737.44;5051762;28;20392;-61
2022/08/13 07:16:20;;;;;;;11.95;8.05;;;;;;;26.74;41.56;100743.66;5051932;28;21407;-61
2022/08/13 07:18:49;;;;;;;10.70;7.70;;;;;;;26.80;41.65;100755.31;5051590;28;20766;-61
2022/08/13 07:21:19;;;;;;;11.00;8.13;;;;;;;26.84;41.44;100748.22;5051724;28;20385;-62
2022/08/13 07:23:47;;;;;;;12.60;8.23;;;;;;;26.91;41.48;100754.19;5051564;28;20767;-61
2022/08/13 07:26:13;;;;;;;10.93;7.97;;;;;;;26.87;41.33;100759.38;5051439;28;20483;-60
2022/08/13 07:28:41;;;;;;;10.13;8.13;;;;;;;26.85;41.26;100749.88;5051589;28;20415;-62
2022/08/13 07:31:08;;;;;;;11.47;8.07;;;;;;;26.88;41.44;100758.28;5051490;28;20442;-61
2022/08/13 07:33:35;;;;;;;11.30;8.18;;;;;;;26.93;41.65;100757.44;5051340;28;20396;-60
2022/08/13 07:36:12;;;;;;;9.73;8.02;;;;;;;26.93;41.57;100756.63;5051452;28;20911;-61
2022/08/13 07:38:38;;;;;;;11.27;8.80;;;;;;;26.97;41.45;100763.13;5051504;28;20428;-61
2022/08/13 07:41:04;;;;;;;12.85;9.73;;;;;;;26.95;41.74;100752.53;5051601;28;20388;-61
2022/08/13 07:43:39;;;;;;;12.02;9.68;;;;;;;26.99;41.77;100752.78;5051430;28;20376;-61
2022/08/13 07:46:12;;;;;;;10.73;8.70;;;;;;;26.97;41.52;100755.78;5051349;28;20377;-61
2022/08/13 07:48:42;;;;;;;9.48;8.02;;;;;;;27.00;41.75;100757.13;5050176;28;20385;-61
2022/08/13 07:51:19;;;;;;;12.13;8.27;;;;;;;26.99;41.73;100759.06;5051068;28;20775;-61
2022/08/13 07:53:46;;;;;;;12.13;8.25;;;;;;;26.99;41.97;100758.22;5051303;28;20377;-60
2022/08/13 07:56:12;;;;;;;10.75;8.80;;;;;;;26.97;41.91;100760.41;5050813;28;20454;-61
2022/08/13 07:58:38;;;;;;;13.32;8.20;;;;;;;26.99;41.78;100763.66;5049718;28;20417;-61
2022/08/13 08:01:04;;;;;;;12.83;8.37;;;;;;;26.96;42.00;100756.06;5051205;28;20479;-61
2022/08/13 08:03:40;;;;;;;12.02;8.15;;;;;;;26.94;41.87;100750.06;5051128;28;20381;-60
2022/08/13 08:06:09;;;;;;;11.57;7.97;;;;;;;26.89;42.03;100750.94;5051043;28;20801;-61
2022/08/13 08:08:42;;;;;;;12.30;7.90;;;;;;;26.91;41.81;100765.06;5050892;28;20393;-61
2022/08/13 08:11:09;;;;;;;13.40;8.40;;;;;;;26.90;42.08;100755.25;5050915;28;20377;-61
2022/08/13 08:13:35;;;;;;;10.83;7.90;;;;;;;26.88;42.17;100750.13;5050974;28;20431;-61
2022/08/13 08:16:03;;;;;;;11.93;8.65;;;;;;;26.89;42.40;100756.38;5050803;28;20420;-61
2022/08/13 08:18:30;;;;;;;10.30;8.57;;;;;;;26.85;42.19;100749.88;5050698;28;20384;-61
2022/08/13 08:21:04;;;;;;;10.35;9.10;;;;;;;26.86;42.16;100751.47;5050576;28;20377;-61
2022/08/13 08:23:32;;;;;;;12.85;8.32;;;;;;;26.92;41.93;100757.72;5050596;28;20392;-60
2022/08/13 08:26:00;;;;;;;10.00;8.32;;;;;;;26.87;42.31;100755.84;5050686;28;20412;-61
2022/08/13 08:28:30;;;;;;;11.48;8.95;;;;;;;26.88;41.90;100752.84;5050607;28;20389;-61
2022/08/13 08:30:56;;;;;;;10.88;8.30;;;;;;;26.96;41.55;100759.59;5050494;28;20929;-61
2022/08/13 08:33:26;;;;;;;13.33;8.93;;;;;;;26.95;41.77;100749.81;5050134;28;20437;-61
2022/08/13 08:35:54;;;;;;;12.45;9.63;;;;;;;26.93;41.92;100743.03;5050351;28;20428;-60
2022/08/13 08:43:53;;;;;;;12.57;8.45;;;;;;;27.02;41.66;100757.66;5050296;28;20459;-62
2022/08/13 08:46:21;;;;;;;10.40;7.97;;;;;;;27.04;41.58;100753.56;5050228;28;20393;-60
2022/08/13 08:48:47;;;;;;;10.32;7.90;;;;;;;27.01;41.68;100743.25;5050183;28;20392;-61
2022/08/13 08:51:13;;;;;;;11.00;8.57;;;;;;;27.06;41.71;100739.69;5050233;28;20388;-61
2022/08/13 08:53:44;;;;;;;12.68;9.68;;;;;;;27.12;41.39;100738.59;5049963;28;20384;-62
2022/08/13 08:56:11;;;;;;;15.03;11.43;;;;;;;27.12;41.54;100741.31;5050128;28;20420;-60
2022/08/13 08:58:41;;;;;;;13.95;10.30;;;;;;;27.11;41.86;100738.84;5050110;28;20408;-60
2022/08/13 09:01:10;;;;;;;12.93;9.25;;;;;;;27.21;41.45;100749.69;5050083;28;20407;-61
2022/08/13 09:03:39;;;;;;;10.85;8.85;;;;;;;27.22;41.68;100741.22;5049972;28;20412;-60
2022/08/13 09:06:08;;;;;;;13.07;8.57;;;;;;;27.23;41.45;100740.13;5049651;28;20801;-61
2022/08/13 09:08:35;;;;;;;12.20;8.48;;;;;;;27.27;41.42;100738.50;5049853;28;20423;-62
2022/08/13 09:11:02;;;;;;;12.63;8.32;;;;;;;27.27;41.56;100741.22;5049670;28;20414;-61
2022/08/13 09:13:28;;;;;;;11.13;8.10;;;;;;;27.24;41.39;100727.34;5049786;28;20377;-61
2022/08/13 09:15:57;;;;;;;10.57;8.40;;;;;;;27.23;41.64;100731.16;5049733;28;20837;-63
2022/08/13 09:18:24;;;;;;;9.82;8.73;;;;;;;27.23;41.66;100734.69;5049714;28;20426;-61
2022/08/13 09:20:50;;;;;;;13.38;8.48;;;;;;;27.27;41.83;100733.06;5049759;28;20531;-63
2022/08/13 09:23:16;;;;;;;10.85;8.38;;;;;;;27.27;41.74;100733.06;5049360;28;20369;-63
2022/08/13 09:25:51;;;;;;;12.82;9.13;;;;;;;27.27;41.71;100738.50;5049542;28;20385;-61
2022/08/13 09:28:23;;;;;;;11.30;8.30;;;;;;;27.23;41.84;100731.16;5049648;28;20442;-63
2022/08/13 09:30:50;;;;;;;9.93;8.35;;;;;;;27.24;41.67;100730.06;5049316;28;20373;-61
2022/08/13 09:33:28;;;;;;;13.82;8.77;;;;;;;27.26;41.46;100726.00;5049578;28;20381;-61
2022/08/13 09:35:54;;;;;;;11.65;8.80;;;;;;;27.22;41.81;100732.25;5049530;28;20428;-61
2022/08/13 09:38:21;;;;;;;12.63;8.85;;;;;;;27.23;41.69;100731.16;5049202;28;20381;-61
2022/08/13 09:41:07;;;;;;;10.82;8.82;;;;;;;27.23;41.84;100723.81;5049170;28;20387;-61
2022/08/13 09:43:39;;;;;;;11.45;8.63;;;;;;;27.23;41.49;100725.72;5049243;28;20396;-61
2022/08/13 09:46:07;;;;;;;11.88;8.32;;;;;;;27.21;41.42;100722.47;5049527;28;20381;-60
2022/08/13 09:48:32;;;;;;;10.10;8.48;;;;;;;27.22;41.76;100724.91;5049143;28;20778;-61
2022/08/13 09:50:58;;;;;;;10.30;8.60;;;;;;;27.23;41.78;100728.44;5049173;28;20897;-62
2022/08/13 09:53:26;;;;;;;11.75;8.43;;;;;;;27.24;41.42;100724.63;5049250;28;20388;-61
2022/08/13 09:55:52;;;;;;;11.47;8.57;;;;;;;27.27;41.73;100730.34;5049375;28;20417;-61
2022/08/13 09:58:18;;;;;;;11.90;8.27;;;;;;;27.25;41.17;100718.91;5049307;28;20385;-61
2022/08/13 10:00:46;;;;;;;10.73;8.43;;;;;;;27.32;41.25;100726.78;5049351;28;20438;-60
2022/08/13 10:03:12;;;;;;;9.15;8.25;;;;;;;27.37;41.02;100721.31;5049317;28;20384;-61
2022/08/13 10:05:38;;;;;;;10.43;9.20;;;;;;;27.45;40.98;100720.69;5048994;28;20381;-61
2022/08/13 10:08:14;;;;;;;10.50;8.20;;;;;;;27.52;40.17;100714.94;5049319;28;20438;-61
2022/08/13 10:10:41;;;;;;;9.68;8.65;;;;;;;27.59;40.01;100715.44;5049526;28;20431;-60
2022/08/13 10:13:06;;;;;;;11.57;8.20;;;;;;;27.68;40.15;100720.25;5048935;28;20966;-61
2022/08/13 10:15:32;;;;;;;10.73;8.15;;;;;;;27.73;40.22;100715.59;5048879;28;20412;-61
2022/08/13 10:17:59;;;;;;;12.00;8.93;;;;;;;27.73;40.25;100714.78;5049450;28;20492;-61
2022/08/13 10:20:36;;;;;;;12.23;8.98;;;;;;;27.76;40.51;100715.00;5049415;28;20450;-61
2022/08/13 10:23:04;;;;;;;14.52;9.10;;;;;;;27.76;40.52;100706.03;5052280;28;20385;-61
2022/08/13 10:25:30;;;;;;;11.18;8.50;;;;;;;27.82;40.71;100708.44;5052656;28;20764;-61
2022/08/13 10:27:56;;;;;;;10.67;8.70;;;;;;;27.83;40.38;100710.03;5052546;28;20956;-61
2022/08/13 10:30:26;;;;;;;10.70;8.63;;;;;;;27.87;40.53;100706.75;5053169;28;20388;-60
2022/08/13 10:32:54;;;;;;;11.60;8.38;;;;;;;27.88;40.80;100711.13;5052779;28;20380;-61
2022/08/13 10:35:21;;;;;;;11.43;8.13;;;;;;;27.96;40.53;100707.78;5052753;28;20471;-61
2022/08/13 10:37:56;;;;;;;10.73;8.45;;;;;;;28.11;40.29;100709.53;5052818;28;20563;-61
2022/08/13 10:40:23;;;;;;;10.38;8.98;;;;;;;28.25;39.82;100705.03;5052688;28;20397;-61
2022/08/13 10:42:51;;;;;;;10.65;8.70;;;;;;;28.36;39.41;100692.94;5052321;28;20388;-60
2022/08/13 10:45:24;;;;;;;10.98;8.85;;;;;;;28.43;39.77;100700.75;5052578;28;20820;-62
2022/08/13 10:47:51;;;;;;;10.63;8.93;;;;;;;28.48;39.48;100691.72;5052507;28;20909;-61
2022/08/13 10:50:19;;;;;;;9.93;8.68;;;;;;;28.51;39.22;100691.94;5052408;28;20476;-61
2022/08/13 10:52:46;;;;;;;10.27;8.45;;;;;;;28.52;39.22;100693.56;5052765;28;20962;-61
2022/08/13 10:55:14;;;;;;;11.90;8.90;;;;;;;28.54;39.20;100693.28;5052073;28;20419;-61
2022/08/13 10:57:42;;;;;;;9.23;8.30;;;;;;;28.56;39.35;100693.84;5052306;28;20890;-61
2022/08/13 11:00:11;;;;;;;9.93;8.43;;;;;;;28.62;39.01;100686.41;5052224;28;20377;-61
2022/08/13 11:02:37;;;;;;;13.00;9.00;;;;;;;28.68;39.26;100687.94;5052007;28;20385;-60
2022/08/13 11:05:08;;;;;;;10.65;9.10;;;;;;;28.70;39.14;100672.09;5052162;28;20384;-61
2022/08/13 11:07:34;;;;;;;10.63;8.30;;;;;;;28.68;38.76;100680.56;5051903;28;20380;-61
2022/08/13 11:10:01;;;;;;;9.38;8.45;;;;;;;28.75;38.71;100677.50;5052376;28;20376;-61
2022/08/13 11:12:27;;;;;;;11.02;8.75;;;;;;;28.76;39.10;100669.03;5051996;28;20385;-61
2022/08/13 11:14:53;;;;;;;12.57;8.65;;;;;;;28.79;39.03;100657.53;5051635;28;20504;-61
2022/08/13 11:17:19;;;;;;;11.48;8.35;;;;;;;28.84;38.96;100659.34;5052283;28;20373;-61
2022/08/13 11:19:48;;;;;;;12.30;8.60;;;;;;;28.86;39.13;100648.94;5052010;28;20383;-61
2022/08/13 11:22:17;;;;;;;10.77;8.73;;;;;;;28.89;40.08;100653.03;5051983;28;20369;-61
2022/08/13 11:24:43;;;;;;;11.40;8.68;;;;;;;28.94;40.48;100651.03;5051554;28;20388;-61
2022/08/13 11:27:08;;;;;;;10.07;8.73;;;;;;;28.91;41.07;100642.63;5051777;28;20464;-60
2022/08/13 11:29:34;;;;;;;11.77;8.73;;;;;;;28.92;40.95;100641.53;5051761;28;20423;-61
2022/08/13 11:31:59;;;;;;;13.20;8.48;;;;;;;28.93;41.53;100643.13;5051677;28;20407;-61
2022/08/13 11:34:25;;;;;;;10.67;8.70;;;;;;;29.00;41.33;100634.59;5051391;28;20751;-61
2022/08/13 11:36:51;;;;;;;13.50;9.05;;;;;;;29.01;42.33;100638.91;5051327;28;20774;-61
2022/08/13 11:39:17;;;;;;;13.43;9.75;;;;;;;29.07;42.18;100638.56;5051349;28;20384;-61
2022/08/13 11:41:43;;;;;;;14.88;9.93;;;;;;;29.11;42.04;100636.84;5051775;28;20759;-62
2022/08/13 11:44:08;;;;;;;15.47;10.23;;;;;;;29.09;41.66;100630.88;5051914;28;20380;-60
2022/08/13 11:46:34;;;;;;;12.80;9.63;;;;;;;29.13;41.04;100631.09;5051514;28;20431;-60
2022/08/13 11:48:59;;;;;;;13.15;9.57;;;;;;;29.20;40.90;100634.28;5051065;28;20392;-60
2022/08/13 11:51:25;;;;;;;15.43;11.60;;;;;;;29.21;40.32;100624.19;5051152;28;20762;-61
2022/08/13 11:53:50;;;;;;;14.80;12.43;;;;;;;29.28;40.06;100636.34;5050171;28;20468;-59
2022/08/13 11:56:16;;;;;;;16.07;12.30;;;;;;;29.31;39.98;100634.94;5051242;28;20461;-60
2022/08/13 11:59:08;;;;;;;11.50;9.80;;;;;;;29.42;39.42;100628.19;5066095;28;20473;-60
2022/08/13 12:01:34;;;;;;;13.73;11.80;;;;;;;29.49;39.06;100625.88;5067180;28;20777;-60
2022/08/13 12:03:59;;;;;;;15.80;12.27;;;;;;;29.51;39.19;100620.97;5067153;28;20420;-60
2022/08/13 12:06:24;;;;;;;13.57;10.43;;;;;;;29.64;38.88;100619.38;5066823;28;20387;-60
2022/08/13 12:08:50;;;;;;;12.20;8.47;;;;;;;29.71;38.53;100608.84;5066990;28;20388;-60